sensor_id;sensor_type;location;lat;lon;timestamp;P1;durP1;ratioP1;P2;durP2;ratioP2
20527;SDS011;23612;50.894;10.700;2023-12-22T00:00:35;23.85;;;4.10;;
20527;SDS011;23612;50.894;10.700;2023-12-22T00:03:00;30.95;;;3.90;;
20527;SDS011;23612;50.894;10.700;2023-12-22T00:05:26;22.60;;;3.85;;
20527;SDS011;23612;50.894;10.700;2023-12-22T00:07:51;21.75;;;4.78;;
20527;SDS011;23612;50.894;10.700;2023-12-22T00:10:16;24.58;;;4.30;;
20527;SDS011;23612;50.894;10.700;2023-12-22T00:12:42;15.88;;;2.85;;
20527;SDS011;23612;50.894;10.700;2023-12-22T00:15:07;21.77;;;3.60;;
20527;SDS011;23612;50.894;10.700;2023-12-22T00:17:33;26.23;;;3.90;;
20527;SDS011;23612;50.894;10.700;2023-12-22T00:19:59;24.30;;;3.60;;
20527;SDS011;23612;50.894;10.700;2023-12-22T00:22:27;29.23;;;3.70;;
20527;SDS011;23612;50.894;10.700;2023-12-22T00:24:53;21.45;;;3.30;;
20527;SDS011;23612;50.894;10.700;2023-12-22T00:27:19;15.75;;;3.13;;
20527;SDS011;23612;50.894;10.700;2023-12-22T00:29:44;26.02;;;3.72;;
20527;SDS011;23612;50.894;10.700;2023-12-22T00:32:10;21.15;;;2.90;;
20527;SDS011;23612;50.894;10.700;2023-12-22T00:34:35;28.45;;;3.78;;
20527;SDS011;23612;50.894;10.700;2023-12-22T00:37:01;21.75;;;4.07;;
20527;SDS011;23612;50.894;10.700;2023-12-22T00:39:27;18.85;;;3.90;;
20527;SDS011;23612;50.894;10.700;2023-12-22T00:41:52;22.92;;;3.47;;
20527;SDS011;23612;50.894;10.700;2023-12-22T00:44:18;22.83;;;4.28;;
20527;SDS011;23612;50.894;10.700;2023-12-22T00:46:43;23.88;;;3.78;;
20527;SDS011;23612;50.894;10.700;2023-12-22T00:49:09;20.48;;;3.55;;
20527;SDS011;23612;50.894;10.700;2023-12-22T00:51:34;13.77;;;3.28;;
20527;SDS011;23612;50.894;10.700;2023-12-22T00:54:00;17.77;;;2.90;;
20527;SDS011;23612;50.894;10.700;2023-12-22T00:56:25;20.80;;;2.70;;
20527;SDS011;23612;50.894;10.700;2023-12-22T00:58:51;17.60;;;3.22;;
20527;SDS011;23612;50.894;10.700;2023-12-22T01:01:16;18.52;;;2.78;;
20527;SDS011;23612;50.894;10.700;2023-12-22T01:03:42;14.82;;;2.80;;
20527;SDS011;23612;50.894;10.700;2023-12-22T01:06:07;16.80;;;3.55;;
20527;SDS011;23612;50.894;10.700;2023-12-22T01:08:33;17.63;;;2.47;;
20527;SDS011;23612;50.894;10.700;2023-12-22T01:10:58;22.17;;;2.72;;
20527;SDS011;23612;50.894;10.700;2023-12-22T01:13:24;13.00;;;2.38;;
20527;SDS011;23612;50.894;10.700;2023-12-22T01:15:49;18.00;;;3.55;;
20527;SDS011;23612;50.894;10.700;2023-12-22T01:18:15;18.83;;;3.55;;
20527;SDS011;23612;50.894;10.700;2023-12-22T01:20:40;16.77;;;2.83;;
20527;SDS011;23612;50.894;10.700;2023-12-22T01:23:06;23.65;;;2.58;;
20527;SDS011;23612;50.894;10.700;2023-12-22T01:25:31;14.25;;;3.22;;
20527;SDS011;23612;50.894;10.700;2023-12-22T01:27:57;13.30;;;2.33;;
20527;SDS011;23612;50.894;10.700;2023-12-22T01:30:22;19.08;;;4.03;;
20527;SDS011;23612;50.894;10.700;2023-12-22T01:32:47;15.30;;;2.83;;
20527;SDS011;23612;50.894;10.700;2023-12-22T01:35:13;23.00;;;2.67;;
20527;SDS011;23612;50.894;10.700;2023-12-22T01:37:39;17.52;;;3.13;;
20527;SDS011;23612;50.894;10.700;2023-12-22T01:40:05;17.60;;;2.95;;
20527;SDS011;23612;50.894;10.700;2023-12-22T01:42:31;21.35;;;3.67;;
20527;SDS011;23612;50.894;10.700;2023-12-22T01:44:56;14.77;;;2.65;;
20527;SDS011;23612;50.894;10.700;2023-12-22T01:47:22;13.95;;;3.08;;
20527;SDS011;23612;50.894;10.700;2023-12-22T01:49:47;10.75;;;2.80;;
20527;SDS011;23612;50.894;10.700;2023-12-22T01:52:13;14.55;;;3.05;;
20527;SDS011;23612;50.894;10.700;2023-12-22T01:54:39;20.80;;;3.50;;
20527;SDS011;23612;50.894;10.700;2023-12-22T01:57:05;18.27;;;3.45;;
20527;SDS011;23612;50.894;10.700;2023-12-22T01:59:31;19.08;;;3.70;;
20527;SDS011;23612;50.894;10.700;2023-12-22T02:02:00;14.43;;;2.35;;
20527;SDS011;23612;50.894;10.700;2023-12-22T02:04:26;13.77;;;2.92;;
20527;SDS011;23612;50.894;10.700;2023-12-22T02:06:54;18.88;;;2.65;;
20527;SDS011;23612;50.894;10.700;2023-12-22T02:09:21;18.65;;;2.30;;
20527;SDS011;23612;50.894;10.700;2023-12-22T02:11:46;18.15;;;3.72;;
20527;SDS011;23612;50.894;10.700;2023-12-22T02:14:11;18.25;;;2.65;;
20527;SDS011;23612;50.894;10.700;2023-12-22T02:19:51;16.13;;;2.40;;
20527;SDS011;23612;50.894;10.700;2023-12-22T02:22:18;13.00;;;2.55;;
20527;SDS011;23612;50.894;10.700;2023-12-22T02:24:43;12.18;;;2.22;;
20527;SDS011;23612;50.894;10.700;2023-12-22T02:27:17;9.75;;;2.22;;
20527;SDS011;23612;50.894;10.700;2023-12-22T02:29:54;16.45;;;3.20;;
20527;SDS011;23612;50.894;10.700;2023-12-22T02:32:34;13.38;;;2.20;;
20527;SDS011;23612;50.894;10.700;2023-12-22T02:35:02;7.20;;;1.85;;
20527;SDS011;23612;50.894;10.700;2023-12-22T02:37:32;14.20;;;2.42;;
20527;SDS011;23612;50.894;10.700;2023-12-22T02:39:59;15.38;;;1.95;;
20527;SDS011;23612;50.894;10.700;2023-12-22T02:42:26;11.13;;;1.80;;
20527;SDS011;23612;50.894;10.700;2023-12-22T02:44:56;13.35;;;2.25;;
20527;SDS011;23612;50.894;10.700;2023-12-22T02:47:23;22.67;;;2.30;;
20527;SDS011;23612;50.894;10.700;2023-12-22T02:49:48;12.27;;;2.35;;
20527;SDS011;23612;50.894;10.700;2023-12-22T02:52:14;11.40;;;2.20;;
20527;SDS011;23612;50.894;10.700;2023-12-22T02:54:39;13.70;;;2.08;;
20527;SDS011;23612;50.894;10.700;2023-12-22T02:57:06;15.65;;;2.88;;
20527;SDS011;23612;50.894;10.700;2023-12-22T02:59:32;14.38;;;2.17;;
20527;SDS011;23612;50.894;10.700;2023-12-22T03:01:58;10.80;;;1.80;;
20527;SDS011;23612;50.894;10.700;2023-12-22T03:04:23;17.50;;;2.05;;
20527;SDS011;23612;50.894;10.700;2023-12-22T03:06:48;13.00;;;2.45;;
20527;SDS011;23612;50.894;10.700;2023-12-22T03:09:14;13.32;;;2.28;;
20527;SDS011;23612;50.894;10.700;2023-12-22T03:11:39;12.38;;;2.15;;
20527;SDS011;23612;50.894;10.700;2023-12-22T03:14:05;11.82;;;2.30;;
20527;SDS011;23612;50.894;10.700;2023-12-22T03:16:30;15.65;;;2.72;;
20527;SDS011;23612;50.894;10.700;2023-12-22T03:18:56;21.08;;;2.53;;
20527;SDS011;23612;50.894;10.700;2023-12-22T03:21:21;14.73;;;2.25;;
20527;SDS011;23612;50.894;10.700;2023-12-22T03:23:47;14.07;;;1.77;;
20527;SDS011;23612;50.894;10.700;2023-12-22T03:26:12;8.35;;;1.98;;
20527;SDS011;23612;50.894;10.700;2023-12-22T03:28:38;15.82;;;2.70;;
20527;SDS011;23612;50.894;10.700;2023-12-22T03:31:03;17.00;;;2.47;;
20527;SDS011;23612;50.894;10.700;2023-12-22T03:33:29;12.18;;;2.15;;
20527;SDS011;23612;50.894;10.700;2023-12-22T03:35:54;14.00;;;2.33;;
20527;SDS011;23612;50.894;10.700;2023-12-22T03:38:20;7.15;;;1.90;;
20527;SDS011;23612;50.894;10.700;2023-12-22T03:40:45;16.73;;;2.58;;
20527;SDS011;23612;50.894;10.700;2023-12-22T03:43:11;13.48;;;2.78;;
20527;SDS011;23612;50.894;10.700;2023-12-22T03:45:36;16.63;;;2.30;;
20527;SDS011;23612;50.894;10.700;2023-12-22T03:48:02;9.65;;;2.13;;
20527;SDS011;23612;50.894;10.700;2023-12-22T03:50:27;15.80;;;2.33;;
20527;SDS011;23612;50.894;10.700;2023-12-22T03:52:53;13.00;;;2.20;;
20527;SDS011;23612;50.894;10.700;2023-12-22T03:55:18;9.75;;;2.22;;
20527;SDS011;23612;50.894;10.700;2023-12-22T03:57:44;14.20;;;3.47;;
20527;SDS011;23612;50.894;10.700;2023-12-22T04:00:09;12.82;;;2.13;;
20527;SDS011;23612;50.894;10.700;2023-12-22T04:02:35;13.02;;;2.30;;
20527;SDS011;23612;50.894;10.700;2023-12-22T04:05:01;12.67;;;2.33;;
20527;SDS011;23612;50.894;10.700;2023-12-22T04:07:26;12.80;;;2.25;;
20527;SDS011;23612;50.894;10.700;2023-12-22T04:09:52;15.00;;;2.92;;
20527;SDS011;23612;50.894;10.700;2023-12-22T04:12:17;13.70;;;2.63;;
20527;SDS011;23612;50.894;10.700;2023-12-22T04:14:43;13.30;;;2.30;;
20527;SDS011;23612;50.894;10.700;2023-12-22T04:17:08;21.40;;;3.03;;
20527;SDS011;23612;50.894;10.700;2023-12-22T04:19:33;13.60;;;1.80;;
20527;SDS011;23612;50.894;10.700;2023-12-22T04:22:01;13.10;;;1.67;;
20527;SDS011;23612;50.894;10.700;2023-12-22T04:24:26;12.40;;;2.23;;
20527;SDS011;23612;50.894;10.700;2023-12-22T04:26:52;9.17;;;1.77;;
20527;SDS011;23612;50.894;10.700;2023-12-22T04:29:17;14.20;;;1.83;;
20527;SDS011;23612;50.894;10.700;2023-12-22T04:31:42;10.70;;;1.50;;
20527;SDS011;23612;50.894;10.700;2023-12-22T04:34:08;7.13;;;1.43;;
20527;SDS011;23612;50.894;10.700;2023-12-22T04:36:34;8.77;;;2.13;;
20527;SDS011;23612;50.894;10.700;2023-12-22T04:39:00;9.10;;;1.30;;
20527;SDS011;23612;50.894;10.700;2023-12-22T04:41:25;11.47;;;2.87;;
20527;SDS011;23612;50.894;10.700;2023-12-22T04:43:51;11.50;;;1.90;;
20527;SDS011;23612;50.894;10.700;2023-12-22T04:46:16;14.33;;;1.80;;
20527;SDS011;23612;50.894;10.700;2023-12-22T04:48:42;8.23;;;1.60;;
20527;SDS011;23612;50.894;10.700;2023-12-22T04:51:07;4.83;;;1.70;;
20527;SDS011;23612;50.894;10.700;2023-12-22T04:53:33;11.47;;;1.80;;
20527;SDS011;23612;50.894;10.700;2023-12-22T04:55:58;10.80;;;1.83;;
20527;SDS011;23612;50.894;10.700;2023-12-22T04:58:24;10.87;;;1.50;;
20527;SDS011;23612;50.894;10.700;2023-12-22T05:00:49;8.83;;;1.80;;
20527;SDS011;23612;50.894;10.700;2023-12-22T05:03:15;10.33;;;1.80;;
20527;SDS011;23612;50.894;10.700;2023-12-22T05:05:40;4.90;;;1.80;;
20527;SDS011;23612;50.894;10.700;2023-12-22T05:08:06;14.23;;;1.90;;
20527;SDS011;23612;50.894;10.700;2023-12-22T05:10:31;11.50;;;2.40;;
20527;SDS011;23612;50.894;10.700;2023-12-22T05:12:57;10.93;;;1.63;;
20527;SDS011;23612;50.894;10.700;2023-12-22T05:15:22;20.08;;;3.13;;
20527;SDS011;23612;50.894;10.700;2023-12-22T05:17:48;13.63;;;2.07;;
20527;SDS011;23612;50.894;10.700;2023-12-22T05:20:13;12.87;;;1.93;;
20527;SDS011;23612;50.894;10.700;2023-12-22T05:22:40;8.65;;;1.90;;
20527;SDS011;23612;50.894;10.700;2023-12-22T05:25:05;16.10;;;2.07;;
20527;SDS011;23612;50.894;10.700;2023-12-22T05:27:31;15.25;;;1.80;;
20527;SDS011;23612;50.894;10.700;2023-12-22T05:29:57;12.00;;;2.13;;
20527;SDS011;23612;50.894;10.700;2023-12-22T05:32:28;22.03;;;2.57;;
20527;SDS011;23612;50.894;10.700;2023-12-22T05:34:53;12.85;;;2.05;;
20527;SDS011;23612;50.894;10.700;2023-12-22T05:37:19;11.67;;;2.10;;
20527;SDS011;23612;50.894;10.700;2023-12-22T05:39:44;11.60;;;2.50;;
20527;SDS011;23612;50.894;10.700;2023-12-22T05:42:10;18.02;;;2.78;;
20527;SDS011;23612;50.894;10.700;2023-12-22T05:44:36;17.57;;;2.20;;
20527;SDS011;23612;50.894;10.700;2023-12-22T05:47:03;11.07;;;2.30;;
20527;SDS011;23612;50.894;10.700;2023-12-22T05:49:29;12.40;;;1.77;;
20527;SDS011;23612;50.894;10.700;2023-12-22T05:51:55;13.18;;;2.90;;
20527;SDS011;23612;50.894;10.700;2023-12-22T05:54:20;13.45;;;2.30;;
20527;SDS011;23612;50.894;10.700;2023-12-22T05:56:46;15.18;;;2.17;;
20527;SDS011;23612;50.894;10.700;2023-12-22T05:59:12;9.90;;;2.00;;
20527;SDS011;23612;50.894;10.700;2023-12-22T06:01:37;15.85;;;2.55;;
20527;SDS011;23612;50.894;10.700;2023-12-22T06:04:03;9.10;;;1.75;;
20527;SDS011;23612;50.894;10.700;2023-12-22T06:06:28;7.70;;;1.60;;
20527;SDS011;23612;50.894;10.700;2023-12-22T06:08:54;11.25;;;1.67;;
20527;SDS011;23612;50.894;10.700;2023-12-22T06:11:20;10.02;;;1.77;;
20527;SDS011;23612;50.894;10.700;2023-12-22T06:13:47;2.85;;;1.15;;
20527;SDS011;23612;50.894;10.700;2023-12-22T06:16:13;8.93;;;1.60;;
20527;SDS011;23612;50.894;10.700;2023-12-22T06:18:39;7.32;;;1.10;;
20527;SDS011;23612;50.894;10.700;2023-12-22T06:21:06;4.15;;;0.77;;
20527;SDS011;23612;50.894;10.700;2023-12-22T06:23:32;4.25;;;1.42;;
20527;SDS011;23612;50.894;10.700;2023-12-22T06:25:57;10.75;;;1.55;;
20527;SDS011;23612;50.894;10.700;2023-12-22T06:28:23;7.72;;;1.65;;
20527;SDS011;23612;50.894;10.700;2023-12-22T06:30:48;8.23;;;1.20;;
20527;SDS011;23612;50.894;10.700;2023-12-22T06:33:14;6.60;;;1.30;;
20527;SDS011;23612;50.894;10.700;2023-12-22T06:35:39;3.28;;;1.20;;
20527;SDS011;23612;50.894;10.700;2023-12-22T06:38:06;5.50;;;1.23;;
20527;SDS011;23612;50.894;10.700;2023-12-22T06:40:32;7.35;;;1.40;;
20527;SDS011;23612;50.894;10.700;2023-12-22T06:42:59;7.07;;;1.33;;
20527;SDS011;23612;50.894;10.700;2023-12-22T06:45:24;6.65;;;1.83;;
20527;SDS011;23612;50.894;10.700;2023-12-22T06:47:50;5.22;;;0.90;;
20527;SDS011;23612;50.894;10.700;2023-12-22T06:50:15;7.15;;;1.40;;
20527;SDS011;23612;50.894;10.700;2023-12-22T06:52:40;7.53;;;2.63;;
20527;SDS011;23612;50.894;10.700;2023-12-22T06:55:06;6.28;;;3.13;;
20527;SDS011;23612;50.894;10.700;2023-12-22T06:57:32;7.28;;;0.98;;
20527;SDS011;23612;50.894;10.700;2023-12-22T06:59:57;4.10;;;0.85;;
20527;SDS011;23612;50.894;10.700;2023-12-22T07:02:23;6.80;;;1.80;;
20527;SDS011;23612;50.894;10.700;2023-12-22T07:07:35;6.80;;;1.93;;
20527;SDS011;23612;50.894;10.700;2023-12-22T07:10:01;3.80;;;1.23;;
20527;SDS011;23612;50.894;10.700;2023-12-22T07:12:26;3.40;;;0.87;;
20527;SDS011;23612;50.894;10.700;2023-12-22T07:14:52;2.97;;;0.93;;
20527;SDS011;23612;50.894;10.700;2023-12-22T07:17:18;6.40;;;1.37;;
20527;SDS011;23612;50.894;10.700;2023-12-22T07:19:43;3.22;;;0.80;;
20527;SDS011;23612;50.894;10.700;2023-12-22T07:22:09;6.35;;;1.00;;
20527;SDS011;23612;50.894;10.700;2023-12-22T07:24:34;6.75;;;1.23;;
20527;SDS011;23612;50.894;10.700;2023-12-22T07:27:00;3.90;;;1.40;;
20527;SDS011;23612;50.894;10.700;2023-12-22T07:29:25;5.63;;;0.85;;
20527;SDS011;23612;50.894;10.700;2023-12-22T07:31:51;7.28;;;1.10;;
20527;SDS011;23612;50.894;10.700;2023-12-22T07:34:16;6.13;;;1.20;;
20527;SDS011;23612;50.894;10.700;2023-12-22T07:36:43;5.13;;;1.23;;
20527;SDS011;23612;50.894;10.700;2023-12-22T07:39:09;8.63;;;1.60;;
20527;SDS011;23612;50.894;10.700;2023-12-22T07:41:35;5.68;;;1.90;;
20527;SDS011;23612;50.894;10.700;2023-12-22T07:44:01;5.30;;;1.17;;
20527;SDS011;23612;50.894;10.700;2023-12-22T07:46:27;8.85;;;1.95;;
20527;SDS011;23612;50.894;10.700;2023-12-22T07:48:53;7.55;;;2.63;;
20527;SDS011;23612;50.894;10.700;2023-12-22T07:51:19;9.40;;;1.40;;
20527;SDS011;23612;50.894;10.700;2023-12-22T07:53:45;5.00;;;1.35;;
20527;SDS011;23612;50.894;10.700;2023-12-22T07:56:11;5.63;;;1.95;;
20527;SDS011;23612;50.894;10.700;2023-12-22T07:58:36;10.32;;;1.67;;
20527;SDS011;23612;50.894;10.700;2023-12-22T08:01:03;6.22;;;1.70;;
20527;SDS011;23612;50.894;10.700;2023-12-22T08:03:29;5.13;;;1.63;;
20527;SDS011;23612;50.894;10.700;2023-12-22T08:05:54;10.35;;;1.50;;
20527;SDS011;23612;50.894;10.700;2023-12-22T08:08:20;6.20;;;1.42;;
20527;SDS011;23612;50.894;10.700;2023-12-22T08:10:46;8.73;;;1.60;;
20527;SDS011;23612;50.894;10.700;2023-12-22T08:13:11;8.32;;;1.85;;
20527;SDS011;23612;50.894;10.700;2023-12-22T08:15:37;9.15;;;1.40;;
20527;SDS011;23612;50.894;10.700;2023-12-22T08:18:02;3.40;;;1.35;;
20527;SDS011;23612;50.894;10.700;2023-12-22T08:20:28;7.05;;;1.27;;
20527;SDS011;23612;50.894;10.700;2023-12-22T08:22:54;5.53;;;1.40;;
20527;SDS011;23612;50.894;10.700;2023-12-22T08:25:19;3.90;;;1.20;;
20527;SDS011;23612;50.894;10.700;2023-12-22T08:27:45;3.85;;;1.30;;
20527;SDS011;23612;50.894;10.700;2023-12-22T08:30:11;7.35;;;1.98;;
20527;SDS011;23612;50.894;10.700;2023-12-22T08:32:37;7.85;;;1.50;;
20527;SDS011;23612;50.894;10.700;2023-12-22T08:35:03;9.20;;;2.10;;
20527;SDS011;23612;50.894;10.700;2023-12-22T08:37:29;15.52;;;3.67;;
20527;SDS011;23612;50.894;10.700;2023-12-22T08:39:55;3.97;;;1.73;;
20527;SDS011;23612;50.894;10.700;2023-12-22T08:58:09;8.93;;;1.88;;
20527;SDS011;23612;50.894;10.700;2023-12-22T09:00:34;5.15;;;1.67;;
20527;SDS011;23612;50.894;10.700;2023-12-22T09:03:00;6.18;;;1.80;;
20527;SDS011;23612;50.894;10.700;2023-12-22T09:05:25;10.15;;;2.22;;
20527;SDS011;23612;50.894;10.700;2023-12-22T09:07:50;8.10;;;2.63;;
20527;SDS011;23612;50.894;10.700;2023-12-22T09:10:16;8.82;;;1.98;;
20527;SDS011;23612;50.894;10.700;2023-12-22T09:12:41;4.80;;;1.50;;
20527;SDS011;23612;50.894;10.700;2023-12-22T09:15:07;8.60;;;2.13;;
20527;SDS011;23612;50.894;10.700;2023-12-22T09:17:32;9.20;;;1.75;;
20527;SDS011;23612;50.894;10.700;2023-12-22T09:19:58;12.98;;;2.45;;
20527;SDS011;23612;50.894;10.700;2023-12-22T09:22:23;10.80;;;3.08;;
20527;SDS011;23612;50.894;10.700;2023-12-22T09:24:49;7.32;;;2.13;;
20527;SDS011;23612;50.894;10.700;2023-12-22T09:27:14;16.75;;;5.07;;
20527;SDS011;23612;50.894;10.700;2023-12-22T09:29:40;10.77;;;2.63;;
20527;SDS011;23612;50.894;10.700;2023-12-22T09:32:05;4.90;;;1.73;;
20527;SDS011;23612;50.894;10.700;2023-12-22T09:34:31;15.82;;;3.05;;
20527;SDS011;23612;50.894;10.700;2023-12-22T09:36:57;11.77;;;1.67;;
20527;SDS011;23612;50.894;10.700;2023-12-22T09:39:22;7.80;;;1.75;;
20527;SDS011;23612;50.894;10.700;2023-12-22T09:41:48;4.65;;;1.42;;
20527;SDS011;23612;50.894;10.700;2023-12-22T09:44:18;10.05;;;2.85;;
20527;SDS011;23612;50.894;10.700;2023-12-22T09:46:46;8.85;;;2.08;;
20527;SDS011;23612;50.894;10.700;2023-12-22T09:49:13;14.13;;;1.83;;
20527;SDS011;23612;50.894;10.700;2023-12-22T09:51:40;6.07;;;1.48;;
20527;SDS011;23612;50.894;10.700;2023-12-22T09:54:07;8.13;;;2.13;;
20527;SDS011;23612;50.894;10.700;2023-12-22T09:56:33;15.77;;;3.40;;
20527;SDS011;23612;50.894;10.700;2023-12-22T09:59:01;13.52;;;2.58;;
20527;SDS011;23612;50.894;10.700;2023-12-22T10:01:27;11.70;;;2.03;;
20527;SDS011;23612;50.894;10.700;2023-12-22T10:03:53;9.43;;;2.50;;
20527;SDS011;23612;50.894;10.700;2023-12-22T10:06:19;8.82;;;4.70;;
20527;SDS011;23612;50.894;10.700;2023-12-22T10:08:46;11.18;;;2.08;;
20527;SDS011;23612;50.894;10.700;2023-12-22T10:11:15;6.90;;;1.77;;
20527;SDS011;23612;50.894;10.700;2023-12-22T10:13:42;10.88;;;1.58;;
20527;SDS011;23612;50.894;10.700;2023-12-22T10:16:08;7.15;;;2.17;;
20527;SDS011;23612;50.894;10.700;2023-12-22T10:18:34;7.15;;;1.40;;
20527;SDS011;23612;50.894;10.700;2023-12-22T10:21:00;8.63;;;1.60;;
20527;SDS011;23612;50.894;10.700;2023-12-22T10:23:26;4.63;;;1.50;;
20527;SDS011;23612;50.894;10.700;2023-12-22T10:25:51;6.70;;;1.40;;
20527;SDS011;23612;50.894;10.700;2023-12-22T10:28:16;7.82;;;1.20;;
20527;SDS011;23612;50.894;10.700;2023-12-22T10:30:46;4.32;;;1.13;;
20527;SDS011;23612;50.894;10.700;2023-12-22T10:33:14;4.03;;;0.80;;
20527;SDS011;23612;50.894;10.700;2023-12-22T10:35:41;2.92;;;1.10;;
20527;SDS011;23612;50.894;10.700;2023-12-22T10:38:07;5.53;;;1.70;;
20527;SDS011;23612;50.894;10.700;2023-12-22T10:40:32;6.90;;;1.55;;
20527;SDS011;23612;50.894;10.700;2023-12-22T10:42:58;5.80;;;2.38;;
20527;SDS011;23612;50.894;10.700;2023-12-22T10:45:25;1.23;;;0.88;;
20527;SDS011;23612;50.894;10.700;2023-12-22T10:47:50;6.95;;;1.58;;
20527;SDS011;23612;50.894;10.700;2023-12-22T10:50:16;3.70;;;1.33;;
20527;SDS011;23612;50.894;10.700;2023-12-22T10:52:48;1.83;;;0.63;;
20527;SDS011;23612;50.894;10.700;2023-12-22T10:55:15;3.15;;;1.02;;
20527;SDS011;23612;50.894;10.700;2023-12-22T10:57:41;1.80;;;0.90;;
20527;SDS011;23612;50.894;10.700;2023-12-22T11:00:06;2.45;;;0.77;;
20527;SDS011;23612;50.894;10.700;2023-12-22T11:02:33;4.95;;;0.85;;
20527;SDS011;23612;50.894;10.700;2023-12-22T11:05:04;2.78;;;0.80;;
20527;SDS011;23612;50.894;10.700;2023-12-22T11:07:34;3.03;;;0.80;;
20527;SDS011;23612;50.894;10.700;2023-12-22T11:10:04;2.10;;;0.80;;
20527;SDS011;23612;50.894;10.700;2023-12-22T11:12:31;3.58;;;1.13;;
20527;SDS011;23612;50.894;10.700;2023-12-22T11:15:00;2.58;;;1.17;;
20527;SDS011;23612;50.894;10.700;2023-12-22T11:17:28;2.58;;;1.00;;
20527;SDS011;23612;50.894;10.700;2023-12-22T11:19:55;2.28;;;1.40;;
20527;SDS011;23612;50.894;10.700;2023-12-22T11:22:21;2.50;;;1.25;;
20527;SDS011;23612;50.894;10.700;2023-12-22T11:24:47;0.63;;;0.57;;
20527;SDS011;23612;50.894;10.700;2023-12-22T11:27:17;1.60;;;0.75;;
20527;SDS011;23612;50.894;10.700;2023-12-22T11:29:47;1.63;;;1.20;;
20527;SDS011;23612;50.894;10.700;2023-12-22T11:32:17;1.70;;;1.20;;
20527;SDS011;23612;50.894;10.700;2023-12-22T11:34:45;2.17;;;1.10;;
20527;SDS011;23612;50.894;10.700;2023-12-22T11:37:12;1.65;;;1.10;;
20527;SDS011;23612;50.894;10.700;2023-12-22T11:39:38;3.30;;;0.80;;
20527;SDS011;23612;50.894;10.700;2023-12-22T11:42:05;3.65;;;1.00;;
20527;SDS011;23612;50.894;10.700;2023-12-22T11:44:34;4.13;;;1.10;;
20527;SDS011;23612;50.894;10.700;2023-12-22T11:47:06;5.05;;;0.98;;
20527;SDS011;23612;50.894;10.700;2023-12-22T11:49:33;2.88;;;1.02;;
20527;SDS011;23612;50.894;10.700;2023-12-22T11:52:15;1.30;;;0.80;;
20527;SDS011;23612;50.894;10.700;2023-12-22T11:54:51;3.78;;;0.82;;
20527;SDS011;23612;50.894;10.700;2023-12-22T12:00:03;2.92;;;0.65;;
20527;SDS011;23612;50.894;10.700;2023-12-22T12:02:32;1.95;;;0.80;;
20527;SDS011;23612;50.894;10.700;2023-12-22T12:05:02;3.58;;;1.05;;
20527;SDS011;23612;50.894;10.700;2023-12-22T12:08:02;2.50;;;0.90;;
20527;SDS011;23612;50.894;10.700;2023-12-22T12:13:07;4.10;;;1.33;;
20527;SDS011;23612;50.894;10.700;2023-12-22T12:15:33;5.57;;;2.05;;
20527;SDS011;23612;50.894;10.700;2023-12-22T12:18:00;4.88;;;1.17;;
20527;SDS011;23612;50.894;10.700;2023-12-22T12:20:26;2.80;;;1.20;;
20527;SDS011;23612;50.894;10.700;2023-12-22T12:22:52;1.90;;;1.15;;
20527;SDS011;23612;50.894;10.700;2023-12-22T12:25:21;1.98;;;0.80;;
20527;SDS011;23612;50.894;10.700;2023-12-22T12:27:50;8.13;;;1.80;;
20527;SDS011;23612;50.894;10.700;2023-12-22T12:30:25;4.63;;;1.42;;
20527;SDS011;23612;50.894;10.700;2023-12-22T12:32:51;4.47;;;1.85;;
20527;SDS011;23612;50.894;10.700;2023-12-22T12:35:18;4.28;;;1.80;;
20527;SDS011;23612;50.894;10.700;2023-12-22T12:37:43;4.22;;;1.80;;
20527;SDS011;23612;50.894;10.700;2023-12-22T12:40:11;6.90;;;1.52;;
20527;SDS011;23612;50.894;10.700;2023-12-22T12:42:36;2.45;;;1.58;;
20527;SDS011;23612;50.894;10.700;2023-12-22T12:45:06;3.15;;;1.33;;
20527;SDS011;23612;50.894;10.700;2023-12-22T12:47:32;7.95;;;1.48;;
20527;SDS011;23612;50.894;10.700;2023-12-22T12:49:58;1.65;;;0.63;;
20527;SDS011;23612;50.894;10.700;2023-12-22T12:52:25;2.38;;;0.80;;
20527;SDS011;23612;50.894;10.700;2023-12-22T12:54:51;3.20;;;1.50;;
20527;SDS011;23612;50.894;10.700;2023-12-22T12:57:17;3.15;;;0.95;;
20527;SDS011;23612;50.894;10.700;2023-12-22T12:59:50;3.33;;;1.00;;
20527;SDS011;23612;50.894;10.700;2023-12-22T13:02:17;2.80;;;1.00;;
20527;SDS011;23612;50.894;10.700;2023-12-22T13:04:43;1.98;;;0.77;;
20527;SDS011;23612;50.894;10.700;2023-12-22T13:07:08;2.20;;;0.60;;
20527;SDS011;23612;50.894;10.700;2023-12-22T13:09:35;1.52;;;0.88;;
20527;SDS011;23612;50.894;10.700;2023-12-22T13:12:01;2.08;;;1.38;;
20527;SDS011;23612;50.894;10.700;2023-12-22T13:14:28;0.68;;;0.68;;
20527;SDS011;23612;50.894;10.700;2023-12-22T13:16:54;0.57;;;0.55;;
20527;SDS011;23612;50.894;10.700;2023-12-22T13:19:24;2.70;;;1.05;;
20527;SDS011;23612;50.894;10.700;2023-12-22T13:21:51;2.35;;;1.25;;
20527;SDS011;23612;50.894;10.700;2023-12-22T13:24:18;1.77;;;1.20;;
20527;SDS011;23612;50.894;10.700;2023-12-22T13:26:44;2.13;;;1.15;;
20527;SDS011;23612;50.894;10.700;2023-12-22T13:29:10;1.15;;;0.98;;
20527;SDS011;23612;50.894;10.700;2023-12-22T13:31:37;2.38;;;1.08;;
20527;SDS011;23612;50.894;10.700;2023-12-22T13:34:10;2.38;;;0.80;;
20527;SDS011;23612;50.894;10.700;2023-12-22T13:36:36;3.42;;;1.17;;
20527;SDS011;23612;50.894;10.700;2023-12-22T13:39:02;1.23;;;1.15;;
20527;SDS011;23612;50.894;10.700;2023-12-22T13:41:31;1.20;;;1.10;;
20527;SDS011;23612;50.894;10.700;2023-12-22T13:44:01;2.65;;;1.60;;
20527;SDS011;23612;50.894;10.700;2023-12-22T13:46:28;3.67;;;1.90;;
20527;SDS011;23612;50.894;10.700;2023-12-22T13:48:53;1.33;;;1.10;;
20527;SDS011;23612;50.894;10.700;2023-12-22T13:51:19;2.30;;;1.60;;
20527;SDS011;23612;50.894;10.700;2023-12-22T13:53:48;2.35;;;2.15;;
20527;SDS011;23612;50.894;10.700;2023-12-22T13:56:14;0.70;;;0.70;;
20527;SDS011;23612;50.894;10.700;2023-12-22T13:58:46;1.13;;;1.00;;
20527;SDS011;23612;50.894;10.700;2023-12-22T14:01:15;3.83;;;1.30;;
20527;SDS011;23612;50.894;10.700;2023-12-22T14:03:44;1.15;;;0.77;;
20527;SDS011;23612;50.894;10.700;2023-12-22T14:06:09;4.50;;;2.17;;
20527;SDS011;23612;50.894;10.700;2023-12-22T14:08:37;2.97;;;1.33;;
20527;SDS011;23612;50.894;10.700;2023-12-22T14:11:06;1.17;;;0.90;;
20527;SDS011;23612;50.894;10.700;2023-12-22T14:13:32;4.13;;;1.80;;
20527;SDS011;23612;50.894;10.700;2023-12-22T14:15:59;13.50;;;7.45;;
20527;SDS011;23612;50.894;10.700;2023-12-22T14:18:24;3.13;;;1.70;;
20527;SDS011;23612;50.894;10.700;2023-12-22T14:20:50;12.70;;;5.10;;
20527;SDS011;23612;50.894;10.700;2023-12-22T14:23:16;5.78;;;3.30;;
20527;SDS011;23612;50.894;10.700;2023-12-22T14:25:44;1.10;;;0.80;;
20527;SDS011;23612;50.894;10.700;2023-12-22T14:28:10;1.70;;;1.23;;
20527;SDS011;23612;50.894;10.700;2023-12-22T14:30:35;1.70;;;1.10;;
20527;SDS011;23612;50.894;10.700;2023-12-22T14:33:01;2.40;;;1.05;;
20527;SDS011;23612;50.894;10.700;2023-12-22T14:35:26;1.45;;;1.35;;
20527;SDS011;23612;50.894;10.700;2023-12-22T14:37:51;0.80;;;0.70;;
20527;SDS011;23612;50.894;10.700;2023-12-22T14:40:17;0.70;;;0.70;;
20527;SDS011;23612;50.894;10.700;2023-12-22T14:42:43;2.00;;;0.70;;
20527;SDS011;23612;50.894;10.700;2023-12-22T14:45:08;2.47;;;1.20;;
20527;SDS011;23612;50.894;10.700;2023-12-22T14:47:34;4.05;;;2.28;;
20527;SDS011;23612;50.894;10.700;2023-12-22T14:50:00;1.02;;;0.90;;